sensor_id;sensor_type;location;lat;lon;timestamp;temperature;humidity
792;DHT22;379;49.022;12.148;2024-02-28T00:00:24;4.60;99.90
792;DHT22;379;49.022;12.148;2024-02-28T00:02:51;4.60;99.90
792;DHT22;379;49.022;12.148;2024-02-28T00:05:18;4.50;99.90
792;DHT22;379;49.022;12.148;2024-02-28T00:07:44;4.40;99.90
792;DHT22;379;49.022;12.148;2024-02-28T00:10:12;4.40;99.90
792;DHT22;379;49.022;12.148;2024-02-28T00:12:39;4.50;99.90
792;DHT22;379;49.022;12.148;2024-02-28T00:15:08;4.40;99.90
792;DHT22;379;49.022;12.148;2024-02-28T00:17:38;4.40;99.90
792;DHT22;379;49.022;12.148;2024-02-28T00:20:07;4.40;99.90
792;DHT22;379;49.022;12.148;2024-02-28T00:22:35;4.40;99.90
792;DHT22;379;49.022;12.148;2024-02-28T00:25:02;4.30;99.90
792;DHT22;379;49.022;12.148;2024-02-28T00:27:30;4.30;99.90
792;DHT22;379;49.022;12.148;2024-02-28T00:29:57;4.30;99.90
792;DHT22;379;49.022;12.148;2024-02-28T00:32:25;4.30;99.90
792;DHT22;379;49.022;12.148;2024-02-28T00:34:52;4.30;99.90
792;DHT22;379;49.022;12.148;2024-02-28T00:37:19;4.20;99.90
792;DHT22;379;49.022;12.148;2024-02-28T00:39:49;4.20;99.90
792;DHT22;379;49.022;12.148;2024-02-28T00:42:16;4.10;99.90
792;DHT22;379;49.022;12.148;2024-02-28T00:44:43;4.00;99.90
792;DHT22;379;49.022;12.148;2024-02-28T00:47:10;3.90;99.90
792;DHT22;379;49.022;12.148;2024-02-28T00:49:38;3.70;99.90
792;DHT22;379;49.022;12.148;2024-02-28T00:52:05;3.70;99.90
792;DHT22;379;49.022;12.148;2024-02-28T00:54:32;3.50;99.90
792;DHT22;379;49.022;12.148;2024-02-28T00:56:58;3.50;99.90
792;DHT22;379;49.022;12.148;2024-02-28T00:59:25;3.40;99.90
792;DHT22;379;49.022;12.148;2024-02-28T01:01:52;3.40;99.90
792;DHT22;379;49.022;12.148;2024-02-28T01:04:19;3.40;99.90
792;DHT22;379;49.022;12.148;2024-02-28T01:06:47;3.40;99.90
792;DHT22;379;49.022;12.148;2024-02-28T01:09:14;3.30;99.90
792;DHT22;379;49.022;12.148;2024-02-28T01:11:41;3.30;99.90
792;DHT22;379;49.022;12.148;2024-02-28T01:14:07;3.30;99.90
792;DHT22;379;49.022;12.148;2024-02-28T01:16:34;3.30;99.90
792;DHT22;379;49.022;12.148;2024-02-28T01:19:01;3.30;99.90
792;DHT22;379;49.022;12.148;2024-02-28T01:21:28;3.30;99.90
792;DHT22;379;49.022;12.148;2024-02-28T01:23:56;3.40;99.90
792;DHT22;379;49.022;12.148;2024-02-28T01:26:23;3.30;99.90
792;DHT22;379;49.022;12.148;2024-02-28T01:28:50;3.30;99.90
792;DHT22;379;49.022;12.148;2024-02-28T01:31:17;3.30;99.90
792;DHT22;379;49.022;12.148;2024-02-28T01:33:43;3.40;99.90
792;DHT22;379;49.022;12.148;2024-02-28T01:36:11;3.40;99.90
792;DHT22;379;49.022;12.148;2024-02-28T01:38:38;3.40;99.90
792;DHT22;379;49.022;12.148;2024-02-28T01:41:06;3.30;99.90
792;DHT22;379;49.022;12.148;2024-02-28T01:43:33;3.30;99.90
792;DHT22;379;49.022;12.148;2024-02-28T01:46:01;3.40;99.90
792;DHT22;379;49.022;12.148;2024-02-28T01:48:30;3.40;99.90
792;DHT22;379;49.022;12.148;2024-02-28T01:50:57;3.40;99.90
792;DHT22;379;49.022;12.148;2024-02-28T01:53:24;3.50;99.90
792;DHT22;379;49.022;12.148;2024-02-28T01:55:50;3.50;99.90
792;DHT22;379;49.022;12.148;2024-02-28T01:58:19;3.50;99.90
792;DHT22;379;49.022;12.148;2024-02-28T02:00:47;3.60;99.90
792;DHT22;379;49.022;12.148;2024-02-28T02:03:14;3.60;99.90
792;DHT22;379;49.022;12.148;2024-02-28T02:05:41;3.60;99.90
792;DHT22;379;49.022;12.148;2024-02-28T02:08:09;3.60;99.90
792;DHT22;379;49.022;12.148;2024-02-28T02:10:36;3.60;99.90
792;DHT22;379;49.022;12.148;2024-02-28T02:13:05;3.60;99.90
792;DHT22;379;49.022;12.148;2024-02-28T02:15:33;3.70;99.90
792;DHT22;379;49.022;12.148;2024-02-28T02:18:00;3.80;99.90
792;DHT22;379;49.022;12.148;2024-02-28T02:20:30;3.80;99.90
792;DHT22;379;49.022;12.148;2024-02-28T02:23:00;3.90;99.90
792;DHT22;379;49.022;12.148;2024-02-28T02:25:27;4.00;99.90
792;DHT22;379;49.022;12.148;2024-02-28T02:27:53;4.10;99.90
792;DHT22;379;49.022;12.148;2024-02-28T02:30:20;4.10;99.90
792;DHT22;379;49.022;12.148;2024-02-28T02:32:47;4.20;99.90
792;DHT22;379;49.022;12.148;2024-02-28T02:35:14;4.20;99.90
792;DHT22;379;49.022;12.148;2024-02-28T02:37:43;4.20;99.90
792;DHT22;379;49.022;12.148;2024-02-28T02:40:13;4.20;99.90
792;DHT22;379;49.022;12.148;2024-02-28T02:42:40;4.20;99.90
792;DHT22;379;49.022;12.148;2024-02-28T02:45:07;4.10;99.90
792;DHT22;379;49.022;12.148;2024-02-28T02:47:33;4.20;99.90
792;DHT22;379;49.022;12.148;2024-02-28T02:50:00;4.20;99.90
792;DHT22;379;49.022;12.148;2024-02-28T02:52:27;4.30;99.90
792;DHT22;379;49.022;12.148;2024-02-28T02:54:54;4.20;99.90
792;DHT22;379;49.022;12.148;2024-02-28T02:57:22;4.20;99.90
792;DHT22;379;49.022;12.148;2024-02-28T02:59:49;4.30;99.90
792;DHT22;379;49.022;12.148;2024-02-28T03:02:15;4.30;99.90
792;DHT22;379;49.022;12.148;2024-02-28T03:04:42;4.40;99.90
792;DHT22;379;49.022;12.148;2024-02-28T03:07:09;4.50;99.90
792;DHT22;379;49.022;12.148;2024-02-28T03:09:36;4.50;99.90
792;DHT22;379;49.022;12.148;2024-02-28T03:12:03;4.60;99.90
792;DHT22;379;49.022;12.148;2024-02-28T03:14:31;4.70;99.90
792;DHT22;379;49.022;12.148;2024-02-28T03:16:58;4.70;99.90
792;DHT22;379;49.022;12.148;2024-02-28T03:19:24;4.70;99.90
792;DHT22;379;49.022;12.148;2024-02-28T03:21:51;4.70;99.90
792;DHT22;379;49.022;12.148;2024-02-28T03:24:18;4.80;99.90
792;DHT22;379;49.022;12.148;2024-02-28T03:26:44;4.80;99.90
792;DHT22;379;49.022;12.148;2024-02-28T03:29:12;4.80;99.90
792;DHT22;379;49.022;12.148;2024-02-28T03:31:40;4.80;99.90
792;DHT22;379;49.022;12.148;2024-02-28T03:34:06;4.80;99.90
792;DHT22;379;49.022;12.148;2024-02-28T03:36:35;4.90;99.90
792;DHT22;379;49.022;12.148;2024-02-28T03:39:02;4.90;99.90
792;DHT22;379;49.022;12.148;2024-02-28T03:41:29;4.90;99.90
792;DHT22;379;49.022;12.148;2024-02-28T03:43:56;4.90;99.90
792;DHT22;379;49.022;12.148;2024-02-28T03:46:22;4.90;99.90
792;DHT22;379;49.022;12.148;2024-02-28T03:48:50;5.00;99.90
792;DHT22;379;49.022;12.148;2024-02-28T03:51:17;5.00;99.90
792;DHT22;379;49.022;12.148;2024-02-28T03:53:44;5.00;99.90
792;DHT22;379;49.022;12.148;2024-02-28T03:56:10;5.00;99.90
792;DHT22;379;49.022;12.148;2024-02-28T03:58:38;5.00;99.90
792;DHT22;379;49.022;12.148;2024-02-28T04:01:05;5.00;99.90
792;DHT22;379;49.022;12.148;2024-02-28T04:03:32;5.00;99.90
792;DHT22;379;49.022;12.148;2024-02-28T04:06:00;5.00;99.90
792;DHT22;379;49.022;12.148;2024-02-28T04:08:27;5.10;99.90
792;DHT22;379;49.022;12.148;2024-02-28T04:10:53;5.10;99.90
792;DHT22;379;49.022;12.148;2024-02-28T04:13:20;5.10;99.90
792;DHT22;379;49.022;12.148;2024-02-28T04:15:47;5.10;99.90
792;DHT22;379;49.022;12.148;2024-02-28T04:18:13;5.10;99.90
792;DHT22;379;49.022;12.148;2024-02-28T04:20:40;5.10;99.90
792;DHT22;379;49.022;12.148;2024-02-28T04:23:08;5.10;99.90
792;DHT22;379;49.022;12.148;2024-02-28T04:25:35;5.20;99.90
792;DHT22;379;49.022;12.148;2024-02-28T04:28:05;5.10;99.90
792;DHT22;379;49.022;12.148;2024-02-28T04:30:32;5.10;99.90
792;DHT22;379;49.022;12.148;2024-02-28T04:32:59;5.10;99.90
792;DHT22;379;49.022;12.148;2024-02-28T04:35:26;5.10;99.90
792;DHT22;379;49.022;12.148;2024-02-28T04:37:52;5.10;99.90
792;DHT22;379;49.022;12.148;2024-02-28T04:40:20;5.10;99.90
792;DHT22;379;49.022;12.148;2024-02-28T04:42:47;5.10;99.90
792;DHT22;379;49.022;12.148;2024-02-28T04:45:14;5.10;99.90
792;DHT22;379;49.022;12.148;2024-02-28T04:47:41;5.10;99.90
792;DHT22;379;49.022;12.148;2024-02-28T04:50:09;5.10;99.90
792;DHT22;379;49.022;12.148;2024-02-28T04:52:35;5.10;99.90
792;DHT22;379;49.022;12.148;2024-02-28T04:55:03;5.10;99.90
792;DHT22;379;49.022;12.148;2024-02-28T04:57:31;5.10;99.90
792;DHT22;379;49.022;12.148;2024-02-28T04:59:57;5.10;99.90
792;DHT22;379;49.022;12.148;2024-02-28T05:02:24;5.10;99.90
792;DHT22;379;49.022;12.148;2024-02-28T05:04:51;5.10;99.90
792;DHT22;379;49.022;12.148;2024-02-28T05:07:17;5.10;99.90
792;DHT22;379;49.022;12.148;2024-02-28T05:09:44;5.10;99.90
792;DHT22;379;49.022;12.148;2024-02-28T05:12:11;5.10;99.90
792;DHT22;379;49.022;12.148;2024-02-28T05:14:39;5.10;99.90
792;DHT22;379;49.022;12.148;2024-02-28T05:17:06;5.10;99.90
792;DHT22;379;49.022;12.148;2024-02-28T05:19:33;5.10;99.90
792;DHT22;379;49.022;12.148;2024-02-28T05:21:59;5.10;99.90
792;DHT22;379;49.022;12.148;2024-02-28T05:24:27;5.10;99.90
792;DHT22;379;49.022;12.148;2024-02-28T05:26:53;5.10;99.90
792;DHT22;379;49.022;12.148;2024-02-28T05:29:20;5.10;99.90
792;DHT22;379;49.022;12.148;2024-02-28T05:31:47;5.10;99.90
792;DHT22;379;49.022;12.148;2024-02-28T05:34:14;5.10;99.90
792;DHT22;379;49.022;12.148;2024-02-28T05:36:41;5.10;99.90
792;DHT22;379;49.022;12.148;2024-02-28T05:39:08;5.10;99.90
792;DHT22;379;49.022;12.148;2024-02-28T05:41:35;5.10;99.90
792;DHT22;379;49.022;12.148;2024-02-28T05:44:02;5.10;99.90
792;DHT22;379;49.022;12.148;2024-02-28T05:46:28;5.10;99.90
792;DHT22;379;49.022;12.148;2024-02-28T05:48:57;5.10;99.90
792;DHT22;379;49.022;12.148;2024-02-28T05:51:24;5.10;99.90
792;DHT22;379;49.022;12.148;2024-02-28T05:53:51;5.10;99.90
792;DHT22;379;49.022;12.148;2024-02-28T05:56:17;5.20;99.90
792;DHT22;379;49.022;12.148;2024-02-28T05:58:46;5.20;99.90
792;DHT22;379;49.022;12.148;2024-02-28T06:01:15;5.20;99.90
792;DHT22;379;49.022;12.148;2024-02-28T06:03:42;5.20;99.90
792;DHT22;379;49.022;12.148;2024-02-28T06:06:11;5.20;99.90
792;DHT22;379;49.022;12.148;2024-02-28T06:08:39;5.20;99.90
792;DHT22;379;49.022;12.148;2024-02-28T06:11:07;5.20;99.90
792;DHT22;379;49.022;12.148;2024-02-28T06:13:34;5.20;99.90
792;DHT22;379;49.022;12.148;2024-02-28T06:16:00;5.20;99.90
792;DHT22;379;49.022;12.148;2024-02-28T06:18:28;5.20;99.90
792;DHT22;379;49.022;12.148;2024-02-28T06:20:58;5.20;99.90
792;DHT22;379;49.022;12.148;2024-02-28T06:23:27;5.20;99.90
792;DHT22;379;49.022;12.148;2024-02-28T06:25:55;5.20;99.90
792;DHT22;379;49.022;12.148;2024-02-28T06:28:22;5.20;99.90
792;DHT22;379;49.022;12.148;2024-02-28T06:30:48;5.20;99.90
792;DHT22;379;49.022;12.148;2024-02-28T06:33:15;5.20;99.90
792;DHT22;379;49.022;12.148;2024-02-28T06:35:42;5.20;99.90
792;DHT22;379;49.022;12.148;2024-02-28T06:38:08;5.20;99.90
792;DHT22;379;49.022;12.148;2024-02-28T06:40:36;5.20;99.90
792;DHT22;379;49.022;12.148;2024-02-28T06:43:04;5.20;99.90
792;DHT22;379;49.022;12.148;2024-02-28T06:45:31;5.20;99.90
792;DHT22;379;49.022;12.148;2024-02-28T06:47:58;5.20;99.90
792;DHT22;379;49.022;12.148;2024-02-28T06:50:24;5.30;99.90
792;DHT22;379;49.022;12.148;2024-02-28T06:52:51;5.30;99.90
792;DHT22;379;49.022;12.148;2024-02-28T06:55:19;5.30;99.90
792;DHT22;379;49.022;12.148;2024-02-28T06:57:47;5.30;99.90
792;DHT22;379;49.022;12.148;2024-02-28T07:00:14;5.30;99.90
792;DHT22;379;49.022;12.148;2024-02-28T07:02:41;5.30;99.90
792;DHT22;379;49.022;12.148;2024-02-28T07:05:08;5.30;99.90
792;DHT22;379;49.022;12.148;2024-02-28T07:07:35;5.30;99.90
792;DHT22;379;49.022;12.148;2024-02-28T07:10:03;5.30;99.90
792;DHT22;379;49.022;12.148;2024-02-28T07:12:30;5.30;99.90
792;DHT22;379;49.022;12.148;2024-02-28T07:14:58;5.40;99.90
792;DHT22;379;49.022;12.148;2024-02-28T07:17:25;5.40;99.90
792;DHT22;379;49.022;12.148;2024-02-28T07:19:52;5.40;99.90
792;DHT22;379;49.022;12.148;2024-02-28T07:22:19;5.40;99.90
792;DHT22;379;49.022;12.148;2024-02-28T07:24:46;5.40;99.90
792;DHT22;379;49.022;12.148;2024-02-28T07:27:13;5.50;99.90
792;DHT22;379;49.022;12.148;2024-02-28T07:29:41;5.50;99.90
792;DHT22;379;49.022;12.148;2024-02-28T07:32:09;5.60;99.90
792;DHT22;379;49.022;12.148;2024-02-28T07:34:36;5.60;99.90
792;DHT22;379;49.022;12.148;2024-02-28T07:37:03;5.60;99.90
792;DHT22;379;49.022;12.148;2024-02-28T07:39:29;5.60;99.90
792;DHT22;379;49.022;12.148;2024-02-28T07:41:56;5.60;99.90
792;DHT22;379;49.022;12.148;2024-02-28T07:44:23;5.70;99.90
792;DHT22;379;49.022;12.148;2024-02-28T07:46:49;5.70;99.90
792;DHT22;379;49.022;12.148;2024-02-28T07:49:18;5.80;99.90
792;DHT22;379;49.022;12.148;2024-02-28T07:51:44;5.80;99.90
792;DHT22;379;49.022;12.148;2024-02-28T07:54:11;5.90;99.90
792;DHT22;379;49.022;12.148;2024-02-28T07:56:38;5.90;99.90
792;DHT22;379;49.022;12.148;2024-02-28T07:59:05;6.00;99.90
792;DHT22;379;49.022;12.148;2024-02-28T08:01:31;6.10;99.90
792;DHT22;379;49.022;12.148;2024-02-28T08:03:58;6.10;99.90
792;DHT22;379;49.022;12.148;2024-02-28T08:06:28;6.20;99.90
792;DHT22;379;49.022;12.148;2024-02-28T08:08:56;6.30;99.90
792;DHT22;379;49.022;12.148;2024-02-28T08:11:23;6.50;99.90
792;DHT22;379;49.022;12.148;2024-02-28T08:13:50;6.60;99.90
792;DHT22;379;49.022;12.148;2024-02-28T08:16:17;6.60;99.90
792;DHT22;379;49.022;12.148;2024-02-28T08:18:44;6.70;99.90
792;DHT22;379;49.022;12.148;2024-02-28T08:21:10;6.70;99.90
792;DHT22;379;49.022;12.148;2024-02-28T08:23:38;6.80;99.90
792;DHT22;379;49.022;12.148;2024-02-28T08:26:05;6.70;99.90
792;DHT22;379;49.022;12.148;2024-02-28T08:28:32;6.70;99.90
792;DHT22;379;49.022;12.148;2024-02-28T08:30:59;6.70;99.90
792;DHT22;379;49.022;12.148;2024-02-28T08:33:25;6.70;99.90
792;DHT22;379;49.022;12.148;2024-02-28T08:35:52;6.70;99.90
792;DHT22;379;49.022;12.148;2024-02-28T08:38:19;6.80;99.90
792;DHT22;379;49.022;12.148;2024-02-28T08:40:47;6.70;99.90
792;DHT22;379;49.022;12.148;2024-02-28T08:43:14;6.80;99.90
792;DHT22;379;49.022;12.148;2024-02-28T08:45:40;6.80;99.90
792;DHT22;379;49.022;12.148;2024-02-28T08:48:08;6.90;99.90
792;DHT22;379;49.022;12.148;2024-02-28T08:50:34;6.90;99.90
792;DHT22;379;49.022;12.148;2024-02-28T08:53:02;6.90;99.90
792;DHT22;379;49.022;12.148;2024-02-28T08:55:28;6.90;99.90
792;DHT22;379;49.022;12.148;2024-02-28T08:57:57;6.80;99.90
792;DHT22;379;49.022;12.148;2024-02-28T09:00:24;6.80;99.90
792;DHT22;379;49.022;12.148;2024-02-28T09:02:51;6.70;99.90
792;DHT22;379;49.022;12.148;2024-02-28T09:05:18;6.70;99.90
792;DHT22;379;49.022;12.148;2024-02-28T09:07:44;6.70;99.90
792;DHT22;379;49.022;12.148;2024-02-28T09:10:11;6.70;99.90
792;DHT22;379;49.022;12.148;2024-02-28T09:12:38;6.80;99.90
792;DHT22;379;49.022;12.148;2024-02-28T09:15:07;6.90;99.90
792;DHT22;379;49.022;12.148;2024-02-28T09:17:34;7.00;99.90
792;DHT22;379;49.022;12.148;2024-02-28T09:20:01;6.90;99.90
792;DHT22;379;49.022;12.148;2024-02-28T09:22:29;6.90;99.90
792;DHT22;379;49.022;12.148;2024-02-28T09:24:56;6.90;99.90
792;DHT22;379;49.022;12.148;2024-02-28T09:27:23;7.00;99.90
792;DHT22;379;49.022;12.148;2024-02-28T09:29:51;7.10;99.90
792;DHT22;379;49.022;12.148;2024-02-28T09:32:19;7.10;99.90
792;DHT22;379;49.022;12.148;2024-02-28T09:34:46;7.20;99.90
792;DHT22;379;49.022;12.148;2024-02-28T09:37:13;7.20;99.90
792;DHT22;379;49.022;12.148;2024-02-28T09:39:40;7.40;99.90
792;DHT22;379;49.022;12.148;2024-02-28T09:42:07;7.50;99.90
792;DHT22;379;49.022;12.148;2024-02-28T09:44:35;7.80;99.90
792;DHT22;379;49.022;12.148;2024-02-28T09:47:03;8.00;99.90
792;DHT22;379;49.022;12.148;2024-02-28T09:49:32;8.10;99.90
792;DHT22;379;49.022;12.148;2024-02-28T09:52:03;8.30;99.90
792;DHT22;379;49.022;12.148;2024-02-28T09:54:30;8.20;99.90
792;DHT22;379;49.022;12.148;2024-02-28T09:56:57;8.10;99.90
792;DHT22;379;49.022;12.148;2024-02-28T09:59:24;8.20;99.90
792;DHT22;379;49.022;12.148;2024-02-28T10:01:56;8.20;99.90
792;DHT22;379;49.022;12.148;2024-02-28T10:04:25;8.20;99.90
792;DHT22;379;49.022;12.148;2024-02-28T10:06:54;8.20;99.90
792;DHT22;379;49.022;12.148;2024-02-28T10:09:21;8.20;99.90
792;DHT22;379;49.022;12.148;2024-02-28T10:11:47;8.30;99.90
792;DHT22;379;49.022;12.148;2024-02-28T10:14:17;8.40;99.90
792;DHT22;379;49.022;12.148;2024-02-28T10:16:45;8.60;99.90
792;DHT22;379;49.022;12.148;2024-02-28T10:19:12;8.80;99.90
792;DHT22;379;49.022;12.148;2024-02-28T10:21:38;8.70;99.90
792;DHT22;379;49.022;12.148;2024-02-28T10:24:07;8.70;99.90
792;DHT22;379;49.022;12.148;2024-02-28T10:26:42;8.80;99.90
792;DHT22;379;49.022;12.148;2024-02-28T10:29:09;8.80;99.90
792;DHT22;379;49.022;12.148;2024-02-28T10:31:36;8.90;99.90
792;DHT22;379;49.022;12.148;2024-02-28T10:34:04;8.90;99.90
792;DHT22;379;49.022;12.148;2024-02-28T10:36:32;9.00;99.90
792;DHT22;379;49.022;12.148;2024-02-28T10:39:00;8.80;99.90
792;DHT22;379;49.022;12.148;2024-02-28T10:41:29;8.80;99.90
792;DHT22;379;49.022;12.148;2024-02-28T10:43:58;8.80;99.90
792;DHT22;379;49.022;12.148;2024-02-28T10:46:25;8.70;99.90
792;DHT22;379;49.022;12.148;2024-02-28T10:48:52;8.60;99.90
792;DHT22;379;49.022;12.148;2024-02-28T10:51:23;8.60;99.90
792;DHT22;379;49.022;12.148;2024-02-28T10:53:57;8.60;99.90
792;DHT22;379;49.022;12.148;2024-02-28T10:56:29;8.60;99.90
792;DHT22;379;49.022;12.148;2024-02-28T10:58:59;8.60;99.90
792;DHT22;379;49.022;12.148;2024-02-28T11:01:26;8.70;99.90
792;DHT22;379;49.022;12.148;2024-02-28T11:03:53;8.60;99.90
792;DHT22;379;49.022;12.148;2024-02-28T11:06:21;8.60;99.90
792;DHT22;379;49.022;12.148;2024-02-28T11:08:49;8.50;99.90
792;DHT22;379;49.022;12.148;2024-02-28T11:11:18;8.40;99.90
792;DHT22;379;49.022;12.148;2024-02-28T11:13:58;8.20;99.90
792;DHT22;379;49.022;12.148;2024-02-28T11:16:27;8.10;99.90
792;DHT22;379;49.022;12.148;2024-02-28T11:18:54;8.10;99.90
792;DHT22;379;49.022;12.148;2024-02-28T11:21:25;8.10;99.90
792;DHT22;379;49.022;12.148;2024-02-28T11:23:52;8.10;99.90
792;DHT22;379;49.022;12.148;2024-02-28T11:26:23;8.10;99.90
792;DHT22;379;49.022;12.148;2024-02-28T11:28:50;8.10;99.90
792;DHT22;379;49.022;12.148;2024-02-28T11:31:18;8.10;99.90
792;DHT22;379;49.022;12.148;2024-02-28T11:33:45;8.20;99.90
792;DHT22;379;49.022;12.148;2024-02-28T11:36:12;8.20;99.90
792;DHT22;379;49.022;12.148;2024-02-28T11:38:39;8.10;99.90
792;DHT22;379;49.022;12.148;2024-02-28T11:41:07;8.10;99.90
792;DHT22;379;49.022;12.148;2024-02-28T11:43:34;8.00;99.90
792;DHT22;379;49.022;12.148;2024-02-28T11:46:01;7.90;99.90
792;DHT22;379;49.022;12.148;2024-02-28T11:48:31;7.90;99.90
792;DHT22;379;49.022;12.148;2024-02-28T11:50:58;7.80;99.90
792;DHT22;379;49.022;12.148;2024-02-28T11:53:25;7.80;99.90
792;DHT22;379;49.022;12.148;2024-02-28T11:55:53;7.80;99.90
792;DHT22;379;49.022;12.148;2024-02-28T11:58:21;7.80;99.90
792;DHT22;379;49.022;12.148;2024-02-28T12:00:48;7.80;99.90
792;DHT22;379;49.022;12.148;2024-02-28T12:03:20;7.90;99.90
792;DHT22;379;49.022;12.148;2024-02-28T12:05:48;7.80;99.90
792;DHT22;379;49.022;12.148;2024-02-28T12:08:16;7.80;99.90
792;DHT22;379;49.022;12.148;2024-02-28T12:10:43;7.80;99.90
792;DHT22;379;49.022;12.148;2024-02-28T12:13:10;7.80;99.90
792;DHT22;379;49.022;12.148;2024-02-28T12:15:39;7.80;99.90
792;DHT22;379;49.022;12.148;2024-02-28T12:18:10;7.90;99.90
792;DHT22;379;49.022;12.148;2024-02-28T12:20:37;8.00;99.90
792;DHT22;379;49.022;12.148;2024-02-28T12:23:06;8.00;99.90
792;DHT22;379;49.022;12.148;2024-02-28T12:25:33;8.10;99.90
792;DHT22;379;49.022;12.148;2024-02-28T12:28:01;8.20;99.90
792;DHT22;379;49.022;12.148;2024-02-28T12:30:30;8.30;99.90
792;DHT22;379;49.022;12.148;2024-02-28T12:32:57;8.20;99.90
792;DHT22;379;49.022;12.148;2024-02-28T12:35:25;8.30;99.90
792;DHT22;379;49.022;12.148;2024-02-28T12:37:52;8.30;99.90
792;DHT22;379;49.022;12.148;2024-02-28T12:40:20;8.30;99.90
792;DHT22;379;49.022;12.148;2024-02-28T12:42:47;8.30;99.90
792;DHT22;379;49.022;12.148;2024-02-28T12:45:14;8.30;99.90
792;DHT22;379;49.022;12.148;2024-02-28T12:47:40;8.20;99.90
792;DHT22;379;49.022;12.148;2024-02-28T12:50:08;8.20;99.90
792;DHT22;379;49.022;12.148;2024-02-28T12:52:36;8.20;99.90
792;DHT22;379;49.022;12.148;2024-02-28T12:55:04;8.20;99.90
792;DHT22;379;49.022;12.148;2024-02-28T12:57:32;8.10;99.90
792;DHT22;379;49.022;12.148;2024-02-28T12:59:58;8.00;99.90
792;DHT22;379;49.022;12.148;2024-02-28T13:02:25;8.00;99.90
792;DHT22;379;49.022;12.148;2024-02-28T13:04:52;7.90;99.90
792;DHT22;379;49.022;12.148;2024-02-28T13:07:18;7.80;99.90
792;DHT22;379;49.022;12.148;2024-02-28T13:09:48;7.80;99.90
792;DHT22;379;49.022;12.148;2024-02-28T13:12:14;7.70;99.90
792;DHT22;379;49.022;12.148;2024-02-28T13:14:42;7.60;99.90
792;DHT22;379;49.022;12.148;2024-02-28T13:17:09;7.60;99.90
792;DHT22;379;49.022;12.148;2024-02-28T13:19:36;7.60;99.90
792;DHT22;379;49.022;12.148;2024-02-28T13:22:03;7.70;99.90
792;DHT22;379;49.022;12.148;2024-02-28T13:24:30;7.70;99.90
792;DHT22;379;49.022;12.148;2024-02-28T13:26:56;7.70;99.90
792;DHT22;379;49.022;12.148;2024-02-28T13:29:23;7.70;99.90
792;DHT22;379;49.022;12.148;2024-02-28T13:31:51;7.80;99.90
792;DHT22;379;49.022;12.148;2024-02-28T13:34:18;7.80;99.90
792;DHT22;379;49.022;12.148;2024-02-28T13:36:45;7.80;99.90
792;DHT22;379;49.022;12.148;2024-02-28T13:39:12;7.90;99.90
792;DHT22;379;49.022;12.148;2024-02-28T13:41:39;7.80;99.90
792;DHT22;379;49.022;12.148;2024-02-28T13:44:06;7.80;99.90
792;DHT22;379;49.022;12.148;2024-02-28T13:46:33;7.80;99.90
792;DHT22;379;49.022;12.148;2024-02-28T13:49:01;7.80;99.90
792;DHT22;379;49.022;12.148;2024-02-28T13:51:29;7.80;99.90
792;DHT22;379;49.022;12.148;2024-02-28T13:53:56;7.80;99.90
792;DHT22;379;49.022;12.148;2024-02-28T13:56:23;7.80;99.90
792;DHT22;379;49.022;12.148;2024-02-28T13:58:50;7.80;99.90
792;DHT22;379;49.022;12.148;2024-02-28T14:01:16;7.80;99.90
792;DHT22;379;49.022;12.148;2024-02-28T14:03:44;7.80;99.90
792;DHT22;379;49.022;12.148;2024-02-28T14:06:12;7.70;99.90
792;DHT22;379;49.022;12.148;2024-02-28T14:08:39;7.70;99.90
792;DHT22;379;49.022;12.148;2024-02-28T14:11:06;7.70;99.90
792;DHT22;379;49.022;12.148;2024-02-28T14:13:33;7.70;99.90
792;DHT22;379;49.022;12.148;2024-02-28T14:15:59;7.70;99.90
792;DHT22;379;49.022;12.148;2024-02-28T14:18:27;7.70;99.90
792;DHT22;379;49.022;12.148;2024-02-28T14:20:53;7.60;99.90
792;DHT22;379;49.022;12.148;2024-02-28T14:23:22;7.60;99.90
792;DHT22;379;49.022;12.148;2024-02-28T14:25:48;7.60;99.90
792;DHT22;379;49.022;12.148;2024-02-28T14:28:15;7.70;99.90
792;DHT22;379;49.022;12.148;2024-02-28T14:30:44;7.70;99.90
792;DHT22;379;49.022;12.148;2024-02-28T14:33:14;7.70;99.90
792;DHT22;379;49.022;12.148;2024-02-28T14:35:41;7.70;99.90
792;DHT22;379;49.022;12.148;2024-02-28T14:38:08;7.70;99.90
792;DHT22;379;49.022;12.148;2024-02-28T14:40:36;7.80;99.90
792;DHT22;379;49.022;12.148;2024-02-28T14:43:03;7.80;99.90
792;DHT22;379;49.022;12.148;2024-02-28T14:45:31;7.70;99.90
792;DHT22;379;49.022;12.148;2024-02-28T14:47:57;7.60;99.90
792;DHT22;379;49.022;12.148;2024-02-28T14:50:24;7.60;99.90
792;DHT22;379;49.022;12.148;2024-02-28T14:52:51;7.50;99.90
792;DHT22;379;49.022;12.148;2024-02-28T14:55:18;7.40;99.90
792;DHT22;379;49.022;12.148;2024-02-28T14:57:46;7.40;99.90
792;DHT22;379;49.022;12.148;2024-02-28T15:00:13;7.40;99.90
792;DHT22;379;49.022;12.148;2024-02-28T15:02:40;7.30;99.90
792;DHT22;379;49.022;12.148;2024-02-28T15:05:07;7.30;99.90
792;DHT22;379;49.022;12.148;2024-02-28T15:07:34;7.20;99.90
792;DHT22;379;49.022;12.148;2024-02-28T15:10:01;7.20;99.90
792;DHT22;379;49.022;12.148;2024-02-28T15:12:29;7.10;99.90
792;DHT22;379;49.022;12.148;2024-02-28T15:14:59;7.10;99.90
792;DHT22;379;49.022;12.148;2024-02-28T15:17:27;7.10;99.90
792;DHT22;379;49.022;12.148;2024-02-28T15:19:54;7.10;99.90
792;DHT22;379;49.022;12.148;2024-02-28T15:22:21;7.10;99.90
792;DHT22;379;49.022;12.148;2024-02-28T15:24:48;7.10;99.90
792;DHT22;379;49.022;12.148;2024-02-28T15:27:14;7.10;99.90
792;DHT22;379;49.022;12.148;2024-02-28T15:29:41;7.10;99.90
792;DHT22;379;49.022;12.148;2024-02-28T15:32:10;7.10;99.90
792;DHT22;379;49.022;12.148;2024-02-28T15:34:38;7.10;99.90
792;DHT22;379;49.022;12.148;2024-02-28T15:37:04;7.00;99.90
792;DHT22;379;49.022;12.148;2024-02-28T15:39:31;7.10;99.90
792;DHT22;379;49.022;12.148;2024-02-28T15:41:58;7.00;99.90
792;DHT22;379;49.022;12.148;2024-02-28T15:44:26;7.10;99.90
792;DHT22;379;49.022;12.148;2024-02-28T15:46:52;7.00;99.90
792;DHT22;379;49.022;12.148;2024-02-28T15:49:20;7.00;99.90
792;DHT22;379;49.022;12.148;2024-02-28T15:51:48;7.00;99.90
792;DHT22;379;49.022;12.148;2024-02-28T15:54:15;7.00;99.90
792;DHT22;379;49.022;12.148;2024-02-28T15:56:41;6.90;99.90
792;DHT22;379;49.022;12.148;2024-02-28T15:59:09;6.90;99.90
792;DHT22;379;49.022;12.148;2024-02-28T16:01:38;6.90;99.90
792;DHT22;379;49.022;12.148;2024-02-28T16:04:04;6.90;99.90
792;DHT22;379;49.022;12.148;2024-02-28T16:06:32;6.80;99.90
792;DHT22;379;49.022;12.148;2024-02-28T16:08:59;6.80;99.90
792;DHT22;379;49.022;12.148;2024-02-28T16:11:26;6.80;99.90
792;DHT22;379;49.022;12.148;2024-02-28T16:13:53;6.80;99.90
792;DHT22;379;49.022;12.148;2024-02-28T16:16:19;6.80;99.90
792;DHT22;379;49.022;12.148;2024-02-28T16:18:48;6.70;99.90
792;DHT22;379;49.022;12.148;2024-02-28T16:21:15;6.80;99.90
792;DHT22;379;49.022;12.148;2024-02-28T16:23:43;6.80;99.90
792;DHT22;379;49.022;12.148;2024-02-28T16:26:09;6.80;99.90
792;DHT22;379;49.022;12.148;2024-02-28T16:28:36;6.70;99.90
792;DHT22;379;49.022;12.148;2024-02-28T16:31:03;6.70;99.90
792;DHT22;379;49.022;12.148;2024-02-28T16:33:30;6.80;99.90